sensor_id;sensor_type;location;lat;lon;timestamp;pressure;altitude;pressure_sealevel;temperature
69545;BMP180;56766;52.260;20.746;2023-07-31T00:00:36;99828.20;;;16.80
69545;BMP180;56766;52.260;20.746;2023-07-31T00:03:22;99825.40;;;16.70
69545;BMP180;56766;52.260;20.746;2023-07-31T00:05:48;99826.00;;;16.70
69545;BMP180;56766;52.260;20.746;2023-07-31T00:08:14;99823.20;;;16.60
69545;BMP180;56766;52.260;20.746;2023-07-31T00:10:39;99823.40;;;16.60
69545;BMP180;56766;52.260;20.746;2023-07-31T00:13:05;99821.40;;;16.50
69545;BMP180;56766;52.260;20.746;2023-07-31T00:15:31;99824.80;;;16.50
69545;BMP180;56766;52.260;20.746;2023-07-31T00:17:57;99829.40;;;16.44
69545;BMP180;56766;52.260;20.746;2023-07-31T00:20:23;99831.20;;;16.40
69545;BMP180;56766;52.260;20.746;2023-07-31T00:22:49;99828.00;;;16.40
69545;BMP180;56766;52.260;20.746;2023-07-31T00:25:15;99831.20;;;16.38
69545;BMP180;56766;52.260;20.746;2023-07-31T00:27:41;99830.60;;;16.30
69545;BMP180;56766;52.260;20.746;2023-07-31T00:30:10;99831.00;;;16.30
69545;BMP180;56766;52.260;20.746;2023-07-31T00:32:36;99829.00;;;16.30
69545;BMP180;56766;52.260;20.746;2023-07-31T00:35:03;99824.00;;;16.30
69545;BMP180;56766;52.260;20.746;2023-07-31T00:37:29;99827.40;;;16.30
69545;BMP180;56766;52.260;20.746;2023-07-31T00:39:55;99829.80;;;16.26
69545;BMP180;56766;52.260;20.746;2023-07-31T00:42:21;99824.40;;;16.20
69545;BMP180;56766;52.260;20.746;2023-07-31T00:44:47;99825.80;;;16.20
69545;BMP180;56766;52.260;20.746;2023-07-31T00:47:13;99818.80;;;16.20
69545;BMP180;56766;52.260;20.746;2023-07-31T00:49:39;99820.20;;;16.10
69545;BMP180;56766;52.260;20.746;2023-07-31T00:52:05;99818.40;;;16.10
69545;BMP180;56766;52.260;20.746;2023-07-31T00:54:32;99816.60;;;16.10
69545;BMP180;56766;52.260;20.746;2023-07-31T00:56:59;99815.60;;;16.10
69545;BMP180;56766;52.260;20.746;2023-07-31T00:59:25;99814.80;;;16.10
69545;BMP180;56766;52.260;20.746;2023-07-31T01:01:51;99820.80;;;16.10
69545;BMP180;56766;52.260;20.746;2023-07-31T01:04:18;99813.20;;;16.00
69545;BMP180;56766;52.260;20.746;2023-07-31T01:06:50;99821.00;;;16.00
69545;BMP180;56766;52.260;20.746;2023-07-31T01:09:49;99817.20;;;15.90
69545;BMP180;56766;52.260;20.746;2023-07-31T01:12:18;99809.80;;;15.90
69545;BMP180;56766;52.260;20.746;2023-07-31T01:15:06;99809.40;;;15.80
69545;BMP180;56766;52.260;20.746;2023-07-31T01:17:32;99813.40;;;15.80
69545;BMP180;56766;52.260;20.746;2023-07-31T01:20:03;99815.20;;;15.72
69545;BMP180;56766;52.260;20.746;2023-07-31T01:23:04;99824.20;;;15.70
69545;BMP180;56766;52.260;20.746;2023-07-31T01:26:11;99829.40;;;15.60
69545;BMP180;56766;52.260;20.746;2023-07-31T01:28:53;99828.80;;;15.60
69545;BMP180;56766;52.260;20.746;2023-07-31T01:31:25;99826.80;;;15.60
69545;BMP180;56766;52.260;20.746;2023-07-31T01:33:54;99828.40;;;15.58
69545;BMP180;56766;52.260;20.746;2023-07-31T01:36:22;99827.80;;;15.50
69545;BMP180;56766;52.260;20.746;2023-07-31T01:38:48;99826.60;;;15.50
69545;BMP180;56766;52.260;20.746;2023-07-31T01:41:17;99822.00;;;15.50
69545;BMP180;56766;52.260;20.746;2023-07-31T01:43:45;99833.80;;;15.50
69545;BMP180;56766;52.260;20.746;2023-07-31T01:46:11;99839.80;;;15.50
69545;BMP180;56766;52.260;20.746;2023-07-31T01:48:37;99838.40;;;15.50
69545;BMP180;56766;52.260;20.746;2023-07-31T01:51:03;99836.40;;;15.40
69545;BMP180;56766;52.260;20.746;2023-07-31T01:53:32;99829.40;;;15.40
69545;BMP180;56766;52.260;20.746;2023-07-31T01:55:58;99833.60;;;15.40
69545;BMP180;56766;52.260;20.746;2023-07-31T01:58:24;99828.80;;;15.40
69545;BMP180;56766;52.260;20.746;2023-07-31T02:00:50;99828.40;;;15.34
69545;BMP180;56766;52.260;20.746;2023-07-31T02:03:16;99832.20;;;15.30
69545;BMP180;56766;52.260;20.746;2023-07-31T02:05:49;99838.40;;;15.30
69545;BMP180;56766;52.260;20.746;2023-07-31T02:08:16;99836.20;;;15.30
69545;BMP180;56766;52.260;20.746;2023-07-31T02:10:43;99843.40;;;15.30
69545;BMP180;56766;52.260;20.746;2023-07-31T02:13:09;99846.20;;;15.28
69545;BMP180;56766;52.260;20.746;2023-07-31T02:15:35;99851.40;;;15.30
69545;BMP180;56766;52.260;20.746;2023-07-31T02:18:01;99853.00;;;15.30
69545;BMP180;56766;52.260;20.746;2023-07-31T02:20:26;99853.80;;;15.30
69545;BMP180;56766;52.260;20.746;2023-07-31T02:22:52;99849.00;;;15.30
69545;BMP180;56766;52.260;20.746;2023-07-31T02:25:18;99847.60;;;15.30
69545;BMP180;56766;52.260;20.746;2023-07-31T02:27:44;99852.40;;;15.36
69545;BMP180;56766;52.260;20.746;2023-07-31T02:30:11;99850.00;;;15.40
69545;BMP180;56766;52.260;20.746;2023-07-31T02:32:37;99851.00;;;15.42
69545;BMP180;56766;52.260;20.746;2023-07-31T02:35:03;99857.00;;;15.50
69545;BMP180;56766;52.260;20.746;2023-07-31T02:37:29;99857.40;;;15.50
69545;BMP180;56766;52.260;20.746;2023-07-31T02:39:55;99860.00;;;15.60
69545;BMP180;56766;52.260;20.746;2023-07-31T02:42:21;99854.80;;;15.60
69545;BMP180;56766;52.260;20.746;2023-07-31T02:44:47;99845.40;;;15.70
69545;BMP180;56766;52.260;20.746;2023-07-31T02:47:13;99850.40;;;15.80
69545;BMP180;56766;52.260;20.746;2023-07-31T02:49:38;99851.20;;;15.80
69545;BMP180;56766;52.260;20.746;2023-07-31T02:52:05;99852.00;;;15.90
69545;BMP180;56766;52.260;20.746;2023-07-31T02:54:31;99848.20;;;15.90
69545;BMP180;56766;52.260;20.746;2023-07-31T02:56:57;99850.00;;;15.98
69545;BMP180;56766;52.260;20.746;2023-07-31T02:59:23;99844.00;;;16.00
69545;BMP180;56766;52.260;20.746;2023-07-31T03:01:48;99839.20;;;16.10
69545;BMP180;56766;52.260;20.746;2023-07-31T03:04:14;99842.20;;;16.10
69545;BMP180;56766;52.260;20.746;2023-07-31T03:06:40;99841.00;;;16.18
69545;BMP180;56766;52.260;20.746;2023-07-31T03:09:06;99845.20;;;16.20
69545;BMP180;56766;52.260;20.746;2023-07-31T03:11:32;99849.20;;;16.20
69545;BMP180;56766;52.260;20.746;2023-07-31T03:13:58;99860.60;;;16.30
69545;BMP180;56766;52.260;20.746;2023-07-31T03:16:24;99858.40;;;16.30
69545;BMP180;56766;52.260;20.746;2023-07-31T03:18:49;99861.60;;;16.32
69545;BMP180;56766;52.260;20.746;2023-07-31T03:21:15;99865.00;;;16.40
69545;BMP180;56766;52.260;20.746;2023-07-31T03:23:41;99868.00;;;16.40
69545;BMP180;56766;52.260;20.746;2023-07-31T03:26:09;99871.80;;;16.50
69545;BMP180;56766;52.260;20.746;2023-07-31T03:28:36;99869.80;;;16.50
69545;BMP180;56766;52.260;20.746;2023-07-31T03:31:02;99869.20;;;16.52
69545;BMP180;56766;52.260;20.746;2023-07-31T03:33:28;99870.60;;;16.60
69545;BMP180;56766;52.260;20.746;2023-07-31T03:35:54;99874.40;;;16.60
69545;BMP180;56766;52.260;20.746;2023-07-31T03:38:20;99875.80;;;16.70
69545;BMP180;56766;52.260;20.746;2023-07-31T03:40:46;99879.60;;;16.70
69545;BMP180;56766;52.260;20.746;2023-07-31T03:43:12;99879.60;;;16.80
69545;BMP180;56766;52.260;20.746;2023-07-31T03:45:39;99877.80;;;16.80
69545;BMP180;56766;52.260;20.746;2023-07-31T03:48:05;99879.00;;;16.90
69545;BMP180;56766;52.260;20.746;2023-07-31T03:50:31;99885.80;;;16.90
69545;BMP180;56766;52.260;20.746;2023-07-31T03:52:57;99883.80;;;17.00
69545;BMP180;56766;52.260;20.746;2023-07-31T03:55:23;99885.40;;;17.10
69545;BMP180;56766;52.260;20.746;2023-07-31T03:57:49;99889.80;;;17.18
69545;BMP180;56766;52.260;20.746;2023-07-31T04:00:15;99891.40;;;17.20
69545;BMP180;56766;52.260;20.746;2023-07-31T04:02:41;99896.00;;;17.30
69545;BMP180;56766;52.260;20.746;2023-07-31T04:05:07;99896.40;;;17.40
69545;BMP180;56766;52.260;20.746;2023-07-31T04:07:33;99900.20;;;17.48
69545;BMP180;56766;52.260;20.746;2023-07-31T04:10:00;99903.60;;;17.50
69545;BMP180;56766;52.260;20.746;2023-07-31T04:12:26;99908.80;;;17.52
69545;BMP180;56766;52.260;20.746;2023-07-31T04:14:52;99908.60;;;17.60
69545;BMP180;56766;52.260;20.746;2023-07-31T04:17:18;99910.20;;;17.60
69545;BMP180;56766;52.260;20.746;2023-07-31T04:19:44;99913.80;;;17.60
69545;BMP180;56766;52.260;20.746;2023-07-31T04:22:10;99914.60;;;17.60
69545;BMP180;56766;52.260;20.746;2023-07-31T04:24:36;99910.20;;;17.68
69545;BMP180;56766;52.260;20.746;2023-07-31T04:27:03;99915.80;;;17.70
69545;BMP180;56766;52.260;20.746;2023-07-31T04:29:29;99917.60;;;17.80
69545;BMP180;56766;52.260;20.746;2023-07-31T04:31:55;99916.20;;;17.80
69545;BMP180;56766;52.260;20.746;2023-07-31T04:34:21;99914.20;;;17.90
69545;BMP180;56766;52.260;20.746;2023-07-31T04:36:47;99909.60;;;17.92
69545;BMP180;56766;52.260;20.746;2023-07-31T04:39:13;99908.60;;;18.00
69545;BMP180;56766;52.260;20.746;2023-07-31T04:41:39;99910.80;;;18.00
69545;BMP180;56766;52.260;20.746;2023-07-31T04:44:05;99912.40;;;18.02
69545;BMP180;56766;52.260;20.746;2023-07-31T04:46:31;99913.40;;;18.04
69545;BMP180;56766;52.260;20.746;2023-07-31T04:48:57;99913.40;;;18.10
69545;BMP180;56766;52.260;20.746;2023-07-31T04:51:23;99915.40;;;18.10
69545;BMP180;56766;52.260;20.746;2023-07-31T04:53:49;99909.40;;;18.12
69545;BMP180;56766;52.260;20.746;2023-07-31T04:56:16;99912.20;;;18.20
69545;BMP180;56766;52.260;20.746;2023-07-31T04:58:42;99926.40;;;18.20
69545;BMP180;56766;52.260;20.746;2023-07-31T05:01:08;99925.60;;;18.20
69545;BMP180;56766;52.260;20.746;2023-07-31T05:03:34;99920.60;;;18.20
69545;BMP180;56766;52.260;20.746;2023-07-31T05:06:00;99923.20;;;18.30
69545;BMP180;56766;52.260;20.746;2023-07-31T05:08:26;99926.20;;;18.30
69545;BMP180;56766;52.260;20.746;2023-07-31T05:10:52;99919.40;;;18.32
69545;BMP180;56766;52.260;20.746;2023-07-31T05:13:18;99926.20;;;18.40
69545;BMP180;56766;52.260;20.746;2023-07-31T05:15:45;99930.20;;;18.50
69545;BMP180;56766;52.260;20.746;2023-07-31T05:18:11;99926.40;;;18.60
69545;BMP180;56766;52.260;20.746;2023-07-31T05:20:37;99928.80;;;18.60
69545;BMP180;56766;52.260;20.746;2023-07-31T05:23:03;99933.60;;;18.70
69545;BMP180;56766;52.260;20.746;2023-07-31T05:25:29;99938.20;;;18.90
69545;BMP180;56766;52.260;20.746;2023-07-31T05:27:55;99938.40;;;19.00
69545;BMP180;56766;52.260;20.746;2023-07-31T05:30:21;99941.00;;;19.10
69545;BMP180;56766;52.260;20.746;2023-07-31T05:32:47;99939.00;;;19.20
69545;BMP180;56766;52.260;20.746;2023-07-31T05:35:13;99944.00;;;19.30
69545;BMP180;56766;52.260;20.746;2023-07-31T05:37:39;99947.80;;;19.30
69545;BMP180;56766;52.260;20.746;2023-07-31T05:40:05;99950.60;;;19.30
69545;BMP180;56766;52.260;20.746;2023-07-31T05:42:32;99949.80;;;19.22
69545;BMP180;56766;52.260;20.746;2023-07-31T05:44:58;99951.80;;;19.20
69545;BMP180;56766;52.260;20.746;2023-07-31T05:47:24;99960.20;;;19.20
69545;BMP180;56766;52.260;20.746;2023-07-31T05:49:50;99956.40;;;19.20
69545;BMP180;56766;52.260;20.746;2023-07-31T05:52:19;99954.60;;;19.20
69545;BMP180;56766;52.260;20.746;2023-07-31T05:54:45;99959.40;;;19.16
69545;BMP180;56766;52.260;20.746;2023-07-31T05:57:11;99956.80;;;19.10
69545;BMP180;56766;52.260;20.746;2023-07-31T05:59:37;99958.40;;;19.10
69545;BMP180;56766;52.260;20.746;2023-07-31T06:02:04;99961.40;;;19.10
69545;BMP180;56766;52.260;20.746;2023-07-31T06:04:30;99967.20;;;19.12
69545;BMP180;56766;52.260;20.746;2023-07-31T06:06:56;99971.20;;;19.20
69545;BMP180;56766;52.260;20.746;2023-07-31T06:09:22;99970.60;;;19.20
69545;BMP180;56766;52.260;20.746;2023-07-31T06:11:48;99973.80;;;19.20
69545;BMP180;56766;52.260;20.746;2023-07-31T06:14:15;99975.80;;;19.20
69545;BMP180;56766;52.260;20.746;2023-07-31T06:16:41;99978.20;;;19.20
69545;BMP180;56766;52.260;20.746;2023-07-31T06:19:07;99974.80;;;19.20
69545;BMP180;56766;52.260;20.746;2023-07-31T06:21:33;99973.20;;;19.20
69545;BMP180;56766;52.260;20.746;2023-07-31T06:23:59;99977.00;;;19.20
69545;BMP180;56766;52.260;20.746;2023-07-31T06:26:25;99974.80;;;19.30
69545;BMP180;56766;52.260;20.746;2023-07-31T06:28:51;99970.60;;;19.40
69545;BMP180;56766;52.260;20.746;2023-07-31T06:31:17;99969.80;;;19.60
69545;BMP180;56766;52.260;20.746;2023-07-31T06:33:46;99973.60;;;19.70
69545;BMP180;56766;52.260;20.746;2023-07-31T06:36:12;99970.80;;;19.84
69545;BMP180;56766;52.260;20.746;2023-07-31T06:38:38;99971.60;;;20.00
69545;BMP180;56766;52.260;20.746;2023-07-31T06:41:04;99970.80;;;20.20
69545;BMP180;56766;52.260;20.746;2023-07-31T06:43:30;99980.00;;;20.40
69545;BMP180;56766;52.260;20.746;2023-07-31T06:45:56;99979.00;;;20.66
69545;BMP180;56766;52.260;20.746;2023-07-31T06:48:22;99973.00;;;20.80
69545;BMP180;56766;52.260;20.746;2023-07-31T06:50:48;99974.20;;;21.00
69545;BMP180;56766;52.260;20.746;2023-07-31T06:53:14;99971.00;;;21.16
69545;BMP180;56766;52.260;20.746;2023-07-31T06:55:40;99975.80;;;21.40
69545;BMP180;56766;52.260;20.746;2023-07-31T06:58:06;99978.80;;;21.50
69545;BMP180;56766;52.260;20.746;2023-07-31T07:00:32;99981.00;;;21.52
69545;BMP180;56766;52.260;20.746;2023-07-31T07:02:59;99971.40;;;21.60
69545;BMP180;56766;52.260;20.746;2023-07-31T07:05:25;99969.00;;;21.64
69545;BMP180;56766;52.260;20.746;2023-07-31T07:07:51;99970.80;;;21.70
69545;BMP180;56766;52.260;20.746;2023-07-31T07:10:17;99969.60;;;21.90
69545;BMP180;56766;52.260;20.746;2023-07-31T07:12:44;99971.20;;;22.10
69545;BMP180;56766;52.260;20.746;2023-07-31T07:15:10;99970.40;;;22.30
69545;BMP180;56766;52.260;20.746;2023-07-31T07:17:36;99963.00;;;22.50
69545;BMP180;56766;52.260;20.746;2023-07-31T07:20:03;99960.00;;;22.78
69545;BMP180;56766;52.260;20.746;2023-07-31T07:22:29;99966.00;;;22.92
69545;BMP180;56766;52.260;20.746;2023-07-31T07:24:55;99959.00;;;23.00
69545;BMP180;56766;52.260;20.746;2023-07-31T07:27:21;99957.00;;;23.00
69545;BMP180;56766;52.260;20.746;2023-07-31T07:29:51;99960.60;;;23.06
69545;BMP180;56766;52.260;20.746;2023-07-31T07:32:21;99959.00;;;23.26
69545;BMP180;56766;52.260;20.746;2023-07-31T07:34:48;99953.80;;;23.62
69545;BMP180;56766;52.260;20.746;2023-07-31T07:37:14;99958.40;;;23.90
69545;BMP180;56766;52.260;20.746;2023-07-31T07:39:41;99954.20;;;24.06
69545;BMP180;56766;52.260;20.746;2023-07-31T07:42:07;99955.00;;;24.12
69545;BMP180;56766;52.260;20.746;2023-07-31T07:44:33;99957.20;;;24.20
69545;BMP180;56766;52.260;20.746;2023-07-31T07:46:59;99957.60;;;24.20
69545;BMP180;56766;52.260;20.746;2023-07-31T07:49:25;99958.80;;;24.24
69545;BMP180;56766;52.260;20.746;2023-07-31T07:51:51;99956.80;;;24.44
69545;BMP180;56766;52.260;20.746;2023-07-31T07:54:17;99960.20;;;24.54
69545;BMP180;56766;52.260;20.746;2023-07-31T07:56:43;99961.20;;;24.50
69545;BMP180;56766;52.260;20.746;2023-07-31T07:59:09;99960.60;;;24.60
69545;BMP180;56766;52.260;20.746;2023-07-31T08:01:35;99958.60;;;24.80
69545;BMP180;56766;52.260;20.746;2023-07-31T08:04:01;99955.00;;;24.98
69545;BMP180;56766;52.260;20.746;2023-07-31T08:06:27;99952.60;;;25.20
69545;BMP180;56766;52.260;20.746;2023-07-31T08:08:53;99952.80;;;25.40
69545;BMP180;56766;52.260;20.746;2023-07-31T08:11:19;99954.40;;;25.52
69545;BMP180;56766;52.260;20.746;2023-07-31T08:13:44;99955.60;;;25.60
69545;BMP180;56766;52.260;20.746;2023-07-31T08:16:10;99952.80;;;25.80
69545;BMP180;56766;52.260;20.746;2023-07-31T08:18:36;99956.80;;;26.00
69545;BMP180;56766;52.260;20.746;2023-07-31T08:21:03;99952.20;;;26.20
69545;BMP180;56766;52.260;20.746;2023-07-31T08:23:29;99954.20;;;26.40
69545;BMP180;56766;52.260;20.746;2023-07-31T08:25:55;99952.20;;;26.40
69545;BMP180;56766;52.260;20.746;2023-07-31T08:28:21;99951.40;;;26.50
69545;BMP180;56766;52.260;20.746;2023-07-31T08:30:47;99953.80;;;26.64
69545;BMP180;56766;52.260;20.746;2023-07-31T08:33:13;99955.00;;;26.90
69545;BMP180;56766;52.260;20.746;2023-07-31T08:35:39;99957.80;;;27.00
69545;BMP180;56766;52.260;20.746;2023-07-31T08:38:05;99956.40;;;27.00
69545;BMP180;56766;52.260;20.746;2023-07-31T08:40:31;99963.20;;;27.00
69545;BMP180;56766;52.260;20.746;2023-07-31T08:42:57;99961.80;;;26.90
69545;BMP180;56766;52.260;20.746;2023-07-31T08:45:28;99959.80;;;27.00
69545;BMP180;56766;52.260;20.746;2023-07-31T08:47:56;99962.00;;;26.90
69545;BMP180;56766;52.260;20.746;2023-07-31T08:50:25;99962.40;;;27.10
69545;BMP180;56766;52.260;20.746;2023-07-31T08:52:52;99963.20;;;27.30
69545;BMP180;56766;52.260;20.746;2023-07-31T08:55:19;99963.00;;;27.60
69545;BMP180;56766;52.260;20.746;2023-07-31T08:57:52;99959.60;;;27.78
69545;BMP180;56766;52.260;20.746;2023-07-31T09:00:20;99960.00;;;27.60
69545;BMP180;56766;52.260;20.746;2023-07-31T09:03:02;99953.40;;;27.40
69545;BMP180;56766;52.260;20.746;2023-07-31T09:05:31;99953.00;;;27.40
69545;BMP180;56766;52.260;20.746;2023-07-31T09:07:58;99961.60;;;27.40
69545;BMP180;56766;52.260;20.746;2023-07-31T09:10:24;99955.20;;;27.40
69545;BMP180;56766;52.260;20.746;2023-07-31T09:12:53;99953.20;;;27.20
69545;BMP180;56766;52.260;20.746;2023-07-31T09:15:23;99954.60;;;26.98
69545;BMP180;56766;52.260;20.746;2023-07-31T09:18:00;99953.40;;;26.90
69545;BMP180;56766;52.260;20.746;2023-07-31T09:20:29;99955.00;;;27.00
69545;BMP180;56766;52.260;20.746;2023-07-31T09:22:56;99955.20;;;27.02
69545;BMP180;56766;52.260;20.746;2023-07-31T09:25:30;99957.60;;;27.20
69545;BMP180;56766;52.260;20.746;2023-07-31T09:28:02;99950.60;;;27.30
69545;BMP180;56766;52.260;20.746;2023-07-31T09:30:28;99956.60;;;27.54
69545;BMP180;56766;52.260;20.746;2023-07-31T09:33:05;99954.20;;;27.70
69545;BMP180;56766;52.260;20.746;2023-07-31T09:35:34;99946.60;;;27.60
69545;BMP180;56766;52.260;20.746;2023-07-31T09:38:07;99952.20;;;27.30
69545;BMP180;56766;52.260;20.746;2023-07-31T09:40:38;99950.40;;;27.30
69545;BMP180;56766;52.260;20.746;2023-07-31T09:43:13;99954.20;;;27.30
69545;BMP180;56766;52.260;20.746;2023-07-31T09:45:42;99951.00;;;27.20
69545;BMP180;56766;52.260;20.746;2023-07-31T09:48:12;99957.00;;;27.20
69545;BMP180;56766;52.260;20.746;2023-07-31T09:50:41;99957.80;;;27.20
69545;BMP180;56766;52.260;20.746;2023-07-31T09:53:09;99957.40;;;27.22
69545;BMP180;56766;52.260;20.746;2023-07-31T09:55:37;99957.40;;;27.30
69545;BMP180;56766;52.260;20.746;2023-07-31T09:58:07;99955.00;;;27.42
69545;BMP180;56766;52.260;20.746;2023-07-31T10:00:34;99951.00;;;27.62
69545;BMP180;56766;52.260;20.746;2023-07-31T10:03:05;99949.00;;;27.80
69545;BMP180;56766;52.260;20.746;2023-07-31T10:05:45;99957.20;;;27.80
69545;BMP180;56766;52.260;20.746;2023-07-31T10:08:15;99953.80;;;27.90
69545;BMP180;56766;52.260;20.746;2023-07-31T10:10:45;99955.60;;;28.00
69545;BMP180;56766;52.260;20.746;2023-07-31T10:13:13;99951.80;;;28.12
69545;BMP180;56766;52.260;20.746;2023-07-31T10:15:40;99950.00;;;28.30
69545;BMP180;56766;52.260;20.746;2023-07-31T10:18:08;99949.20;;;28.10
69545;BMP180;56766;52.260;20.746;2023-07-31T10:20:35;99949.60;;;28.20
69545;BMP180;56766;52.260;20.746;2023-07-31T10:23:02;99949.80;;;28.44
69545;BMP180;56766;52.260;20.746;2023-07-31T10:25:29;99950.60;;;28.60
69545;BMP180;56766;52.260;20.746;2023-07-31T10:27:57;99950.20;;;28.70
69545;BMP180;56766;52.260;20.746;2023-07-31T10:30:31;99943.00;;;28.70
69545;BMP180;56766;52.260;20.746;2023-07-31T10:32:58;99943.60;;;28.80
69545;BMP180;56766;52.260;20.746;2023-07-31T10:35:25;99939.40;;;28.80
69545;BMP180;56766;52.260;20.746;2023-07-31T10:37:52;99947.40;;;28.80
69545;BMP180;56766;52.260;20.746;2023-07-31T10:40:25;99943.20;;;28.80
69545;BMP180;56766;52.260;20.746;2023-07-31T10:42:54;99943.60;;;28.60
69545;BMP180;56766;52.260;20.746;2023-07-31T10:45:39;99941.40;;;28.40
69545;BMP180;56766;52.260;20.746;2023-07-31T10:48:14;99936.60;;;28.08
69545;BMP180;56766;52.260;20.746;2023-07-31T10:50:50;99940.00;;;28.00
69545;BMP180;56766;52.260;20.746;2023-07-31T10:53:26;99944.00;;;28.14
69545;BMP180;56766;52.260;20.746;2023-07-31T10:55:53;99943.00;;;28.40
69545;BMP180;56766;52.260;20.746;2023-07-31T10:58:21;99954.20;;;28.40
69545;BMP180;56766;52.260;20.746;2023-07-31T11:00:48;99950.80;;;28.50
69545;BMP180;56766;52.260;20.746;2023-07-31T11:03:17;99949.80;;;28.50
69545;BMP180;56766;52.260;20.746;2023-07-31T11:05:59;99945.40;;;28.50
69545;BMP180;56766;52.260;20.746;2023-07-31T11:08:32;99942.80;;;28.50
69545;BMP180;56766;52.260;20.746;2023-07-31T11:13:30;99948.40;;;28.70
69545;BMP180;56766;52.260;20.746;2023-07-31T11:15:56;99947.00;;;28.80
69545;BMP180;56766;52.260;20.746;2023-07-31T11:18:26;99950.20;;;29.00
69545;BMP180;56766;52.260;20.746;2023-07-31T11:20:53;99940.20;;;29.12
69545;BMP180;56766;52.260;20.746;2023-07-31T11:23:21;99947.20;;;29.26
69545;BMP180;56766;52.260;20.746;2023-07-31T11:25:50;99949.40;;;29.40
69545;BMP180;56766;52.260;20.746;2023-07-31T11:28:19;99945.20;;;29.50
69545;BMP180;56766;52.260;20.746;2023-07-31T11:30:46;99944.20;;;29.40
69545;BMP180;56766;52.260;20.746;2023-07-31T11:33:14;99943.80;;;29.30
69545;BMP180;56766;52.260;20.746;2023-07-31T11:35:48;99949.00;;;29.32
69545;BMP180;56766;52.260;20.746;2023-07-31T11:38:31;99943.40;;;29.20
69545;BMP180;56766;52.260;20.746;2023-07-31T11:41:03;99943.40;;;29.00
69545;BMP180;56766;52.260;20.746;2023-07-31T11:43:33;99939.80;;;28.80
69545;BMP180;56766;52.260;20.746;2023-07-31T11:46:02;99946.60;;;28.80
69545;BMP180;56766;52.260;20.746;2023-07-31T11:48:35;99941.20;;;28.80
69545;BMP180;56766;52.260;20.746;2023-07-31T11:51:05;99943.80;;;28.90
69545;BMP180;56766;52.260;20.746;2023-07-31T11:53:56;99939.60;;;29.00
69545;BMP180;56766;52.260;20.746;2023-07-31T11:56:24;99941.20;;;28.90
69545;BMP180;56766;52.260;20.746;2023-07-31T11:59:00;99936.80;;;28.70
69545;BMP180;56766;52.260;20.746;2023-07-31T12:01:30;99938.20;;;28.60
69545;BMP180;56766;52.260;20.746;2023-07-31T12:03:57;99932.20;;;28.50
69545;BMP180;56766;52.260;20.746;2023-07-31T12:06:34;99931.20;;;28.50
69545;BMP180;56766;52.260;20.746;2023-07-31T12:09:03;99932.00;;;28.40
69545;BMP180;56766;52.260;20.746;2023-07-31T12:11:29;99930.80;;;28.30
69545;BMP180;56766;52.260;20.746;2023-07-31T12:13:55;99930.20;;;28.20
69545;BMP180;56766;52.260;20.746;2023-07-31T12:16:26;99930.40;;;28.10
69545;BMP180;56766;52.260;20.746;2023-07-31T12:18:53;99929.60;;;28.00
69545;BMP180;56766;52.260;20.746;2023-07-31T12:21:20;99925.20;;;28.00
69545;BMP180;56766;52.260;20.746;2023-07-31T12:23:46;99925.80;;;28.10
69545;BMP180;56766;52.260;20.746;2023-07-31T12:26:16;99924.60;;;28.10
69545;BMP180;56766;52.260;20.746;2023-07-31T12:28:50;99921.40;;;28.30
69545;BMP180;56766;52.260;20.746;2023-07-31T12:31:21;99916.60;;;28.50
69545;BMP180;56766;52.260;20.746;2023-07-31T12:33:50;99910.60;;;28.74
69545;BMP180;56766;52.260;20.746;2023-07-31T12:36:24;99906.20;;;29.00
69545;BMP180;56766;52.260;20.746;2023-07-31T12:38:52;99909.40;;;29.30
69545;BMP180;56766;52.260;20.746;2023-07-31T12:41:18;99900.40;;;29.70
69545;BMP180;56766;52.260;20.746;2023-07-31T12:43:45;99896.20;;;30.00
69545;BMP180;56766;52.260;20.746;2023-07-31T12:46:11;99894.60;;;30.10
69545;BMP180;56766;52.260;20.746;2023-07-31T12:48:39;99893.00;;;30.10
69545;BMP180;56766;52.260;20.746;2023-07-31T12:51:06;99890.40;;;30.00
69545;BMP180;56766;52.260;20.746;2023-07-31T12:53:33;99890.40;;;29.98
69545;BMP180;56766;52.260;20.746;2023-07-31T12:55:59;99882.00;;;30.10
69545;BMP180;56766;52.260;20.746;2023-07-31T12:58:25;99879.60;;;30.34
69545;BMP180;56766;52.260;20.746;2023-07-31T13:00:51;99874.40;;;30.50
69545;BMP180;56766;52.260;20.746;2023-07-31T13:03:17;99878.40;;;30.40
69545;BMP180;56766;52.260;20.746;2023-07-31T13:05:43;99872.20;;;30.40
69545;BMP180;56766;52.260;20.746;2023-07-31T13:08:09;99872.40;;;30.30
69545;BMP180;56766;52.260;20.746;2023-07-31T13:10:35;99872.20;;;30.12
69545;BMP180;56766;52.260;20.746;2023-07-31T13:13:01;99872.80;;;29.90
69545;BMP180;56766;52.260;20.746;2023-07-31T13:15:27;99865.40;;;29.64
69545;BMP180;56766;52.260;20.746;2023-07-31T13:17:53;99869.20;;;29.30
69545;BMP180;56766;52.260;20.746;2023-07-31T13:20:19;99869.80;;;28.96
69545;BMP180;56766;52.260;20.746;2023-07-31T13:22:45;99862.00;;;28.68
69545;BMP180;56766;52.260;20.746;2023-07-31T13:25:11;99863.00;;;28.48
69545;BMP180;56766;52.260;20.746;2023-07-31T13:27:37;99857.60;;;28.20
69545;BMP180;56766;52.260;20.746;2023-07-31T13:30:04;99854.20;;;28.10
69545;BMP180;56766;52.260;20.746;2023-07-31T13:32:30;99857.60;;;28.00
69545;BMP180;56766;52.260;20.746;2023-07-31T13:34:56;99857.80;;;27.94
69545;BMP180;56766;52.260;20.746;2023-07-31T13:37:22;99857.60;;;27.90
69545;BMP180;56766;52.260;20.746;2023-07-31T13:39:48;99857.20;;;28.18
69545;BMP180;56766;52.260;20.746;2023-07-31T13:42:14;99853.60;;;28.42
69545;BMP180;56766;52.260;20.746;2023-07-31T13:44:49;99851.00;;;28.60
69545;BMP180;56766;52.260;20.746;2023-07-31T13:47:15;99850.20;;;28.40
69545;BMP180;56766;52.260;20.746;2023-07-31T13:49:41;99846.80;;;28.30
69545;BMP180;56766;52.260;20.746;2023-07-31T13:52:09;99852.60;;;28.20
69545;BMP180;56766;52.260;20.746;2023-07-31T13:54:35;99844.40;;;28.08
69545;BMP180;56766;52.260;20.746;2023-07-31T13:57:01;99848.40;;;27.90
69545;BMP180;56766;52.260;20.746;2023-07-31T13:59:27;99845.20;;;27.80
69545;BMP180;56766;52.260;20.746;2023-07-31T14:01:53;99842.20;;;27.60